Time;durP1;ratioP1;P1;durP2;ratioP2;P2;SDS_P1;SDS_P2;PMS_P1;PMS_P2;Temp;Humidity;BMP_temperature;BMP_pressure;BME280_temperature;BME280_humidity;BME280_pressure;Samples;Min_cycle;Max_cycle;Signal;HPM_P1;HPM_P2
2022/11/07 00:00:31;;;;;;;;;1.00;1.00;;;;;11.39;69.68;99188.88;5136697;27;8859;-57
2022/11/07 00:02:58;;;;;;;;;0.00;0.00;;;;;11.40;69.43;99206.56;5136147;27;8871;-57
2022/11/07 00:05:26;;;;;;;;;2.00;2.00;;;;;11.40;69.50;99195.88;5136244;27;8829;-57
2022/11/07 00:07:54;;;;;;;;;1.00;1.00;;;;;11.41;69.28;99202.91;5136843;27;9500;-57
2022/11/07 00:10:22;;;;;;;;;2.00;2.00;;;;;11.44;69.19;99192.78;5136613;27;8814;-58
2022/11/07 00:12:49;;;;;;;;;1.50;1.00;;;;;11.45;69.40;99183.78;5136364;27;8952;-57
2022/11/07 00:15:17;;;;;;;;;3.00;1.50;;;;;11.47;69.52;99192.50;5136720;27;8822;-57
2022/11/07 00:17:45;;;;;;;;;1.00;0.25;;;;;11.48;70.01;99188.00;5135839;27;8901;-57
2022/11/07 00:20:13;;;;;;;;;1.00;1.00;;;;;11.48;70.11;99193.34;5136672;27;8879;-58
2022/11/07 00:22:40;;;;;;;;;1.00;1.00;;;;;11.43;69.79;99191.09;5136599;27;8913;-57
2022/11/07 00:25:09;;;;;;;;;3.00;3.00;;;;;11.40;70.35;99183.41;5136413;27;8833;-57
2022/11/07 00:27:36;;;;;;;;;1.50;1.50;;;;;11.34;70.05;99184.00;5135744;27;8821;-57
2022/11/07 00:30:04;;;;;;;;;3.00;1.00;;;;;11.29;70.62;99180.09;5136548;27;9494;-57
2022/11/07 00:32:32;;;;;;;;;0.00;0.00;;;;;11.24;70.39;99193.00;5136286;27;8821;-57
2022/11/07 00:35:00;;;;;;;;;1.00;1.00;;;;;11.20;70.50;99189.78;5136313;27;8907;-58
2022/11/07 00:37:28;;;;;;;;;1.00;1.00;;;;;11.18;71.16;99196.22;5140142;27;8914;-57
2022/11/07 00:39:55;;;;;;;;;1.00;1.00;;;;;11.16;70.97;99214.19;5157716;27;8816;-57
2022/11/07 00:42:23;;;;;;;;;2.00;2.00;;;;;11.14;70.94;99210.84;5161360;27;8951;-58
2022/11/07 00:44:51;;;;;;;;;1.00;1.00;;;;;11.11;71.17;99206.63;5161014;27;8911;-57
2022/11/07 00:47:18;;;;;;;;;1.00;1.00;;;;;11.10;70.88;99209.44;5161224;27;8828;-57
2022/11/07 00:49:47;;;;;;;;;2.50;1.50;;;;;11.11;71.16;99213.78;5160997;27;9835;-57
2022/11/07 00:52:15;;;;;;;;;1.50;1.50;;;;;11.10;71.03;99220.94;5161099;27;8946;-57
2022/11/07 00:54:43;;;;;;;;;0.75;0.75;;;;;11.11;70.84;99217.28;5160945;27;8819;-57
2022/11/07 00:57:13;;;;;;;;;1.00;1.00;;;;;11.10;71.53;99220.94;5146252;27;8805;-57
2022/11/07 00:59:51;;;;;;;;;1.00;1.00;;;;;11.11;71.60;99227.09;5139408;27;8830;-58
2022/11/07 01:05:08;;;;;;;;;1.00;0.50;;;;;11.16;71.60;99225.69;5139228;27;8848;-57
2022/11/07 01:05:34;;;;;;;;;0.00;0.00;;;;;11.24;71.29;99224.97;5120880;27;8826;-57
2022/11/07 01:08:02;;;;;;;;;0.75;0.75;;;;;11.26;71.60;99231.84;5139876;27;8861;-58
2022/11/07 01:10:30;;;;;;;;;0.67;0.67;;;;;11.29;71.78;99228.88;5140260;27;8821;-58
2022/11/07 01:12:57;;;;;;;;;1.50;1.00;;;;;11.34;71.98;99233.78;5140383;27;8829;-57
2022/11/07 01:15:26;;;;;;;;;1.00;1.00;;;;;11.38;71.31;99236.00;5139991;27;8890;-57
2022/11/07 01:17:53;;;;;;;;;1.00;1.00;;;;;11.42;71.34;99244.56;5139865;27;8810;-58
2022/11/07 01:20:21;;;;;;;;;0.75;0.00;;;;;11.44;71.43;99240.78;5139820;27;8810;-57
2022/11/07 01:22:51;;;;;;;;;0.00;0.00;;;;;11.47;71.27;99245.84;5139505;27;8813;-58
2022/11/07 01:25:18;;;;;;;;;1.00;1.00;;;;;11.50;71.59;99236.69;5139485;27;8902;-57
2022/11/07 01:27:46;;;;;;;;;0.00;0.00;;;;;11.52;70.79;99240.88;5138905;27;8847;-57
2022/11/07 01:30:14;;;;;;;;;0.25;0.25;;;;;11.54;71.35;99244.25;5139687;27;8814;-58
2022/11/07 01:32:42;;;;;;;;;0.75;0.75;;;;;11.55;71.78;99253.09;5139529;27;8874;-58
2022/11/07 01:35:11;;;;;;;;;0.00;0.00;;;;;11.58;71.09;99247.50;5139285;27;8822;-57
2022/11/07 01:37:38;;;;;;;;;1.00;1.00;;;;;11.55;71.07;99253.94;5139170;27;8810;-56
2022/11/07 01:40:06;;;;;;;;;0.25;0.25;;;;;11.53;71.67;99245.22;5158092;27;8804;-58
2022/11/07 01:42:34;;;;;;;;;0.75;0.75;;;;;11.51;72.24;99247.22;5160103;27;8824;-58
2022/11/07 01:45:01;;;;;;;;;0.25;0.00;;;;;11.48;72.21;99242.19;5159842;27;8827;-55
2022/11/07 01:47:30;;;;;;;;;3.75;3.00;;;;;11.44;72.23;99246.09;5158783;27;8847;-56
2022/11/07 01:49:57;;;;;;;;;1.00;1.00;;;;;11.42;72.59;99244.56;5160207;27;8827;-57
2022/11/07 01:52:25;;;;;;;;;0.00;0.00;;;;;11.39;72.14;99235.03;5160277;27;8908;-56
2022/11/07 01:54:53;;;;;;;;;3.00;3.00;;;;;11.35;71.68;99233.66;5160004;27;8819;-56
2022/11/07 01:57:20;;;;;;;;;0.00;0.00;;;;;11.31;72.52;99237.56;5144585;27;8870;-57
2022/11/07 01:59:48;;;;;;;;;0.25;0.00;;;;;11.29;72.52;99238.72;5139427;27;8931;-57
2022/11/07 02:02:16;;;;;;;;;2.50;0.25;;;;;11.27;72.38;99238.84;5139370;27;8906;-57
2022/11/07 02:04:44;;;;;;;;;0.75;0.75;;;;;11.24;72.44;99247.13;5138876;27;9464;-56
2022/11/07 02:07:12;;;;;;;;;0.75;0.75;;;;;11.21;73.12;99236.75;5138457;27;8810;-57
2022/11/07 02:09:40;;;;;;;;;1.00;0.25;;;;;11.20;72.77;99226.22;5139031;27;8822;-57
2022/11/07 02:12:08;;;;;;;;;0.50;0.50;;;;;11.18;73.24;99241.53;5139116;27;8909;-56
2022/11/07 02:14:35;;;;;;;;;1.75;0.75;;;;;11.18;72.85;99233.53;5138950;27;8830;-56
2022/11/07 02:17:03;;;;;;;;;0.75;0.00;;;;;11.20;73.37;99228.91;5138447;27;8806;-57
2022/11/07 02:19:31;;;;;;;;;0.00;0.00;;;;;11.18;72.79;99233.53;5138935;27;8890;-57
2022/11/07 02:21:59;;;;;;;;;0.00;0.00;;;;;11.16;73.43;99236.34;5138992;27;8817;-57
2022/11/07 02:24:26;;;;;;;;;0.50;0.50;;;;;11.12;72.88;99228.78;5138915;27;8826;-57
2022/11/07 02:26:54;;;;;;;;;0.00;0.00;;;;;11.11;73.12;99227.94;5138647;27;8830;-58
2022/11/07 02:29:21;;;;;;;;;0.50;0.50;;;;;11.11;73.43;99217.28;5138872;27;8836;-57
2022/11/07 02:31:49;;;;;;;;;0.25;0.25;;;;;11.11;73.33;99227.94;5138886;27;8810;-56
2022/11/07 02:34:17;;;;;;;;;1.00;0.00;;;;;11.09;73.50;99226.41;5138573;27;8829;-57
2022/11/07 02:36:44;;;;;;;;;0.00;0.00;;;;;11.11;73.34;99233.28;5138076;27;8806;-57
2022/11/07 02:39:12;;;;;;;;;0.00;0.00;;;;;11.09;73.90;99221.06;5149409;27;8836;-57
2022/11/07 02:41:39;;;;;;;;;0.00;0.00;;;;;11.10;73.98;99236.06;5159297;27;8811;-57
2022/11/07 02:44:07;;;;;;;;;0.75;0.75;;;;;11.09;73.80;99229.06;5158964;27;8811;-56
2022/11/07 02:46:35;;;;;;;;;1.00;1.00;;;;;11.09;73.58;99229.91;5159127;27;8824;-57
2022/11/07 02:49:03;;;;;;;;;1.00;1.00;;;;;11.09;73.57;99232.56;5158854;27;8804;-57
2022/11/07 02:51:30;;;;;;;;;1.00;1.00;;;;;11.07;73.85;99231.88;5159186;27;8804;-55
2022/11/07 02:53:58;;;;;;;;;0.50;0.50;;;;;11.09;73.92;99235.22;5158784;27;8908;-57
2022/11/07 02:56:26;;;;;;;;;0.25;0.25;;;;;11.13;74.22;99235.78;5158739;27;8915;-57
2022/11/07 02:58:53;;;;;;;;;0.00;0.00;;;;;11.14;73.84;99224.16;5158522;27;8816;-57
2022/11/07 03:01:21;;;;;;;;;1.00;1.00;;;;;11.18;73.98;99233.53;5158425;27;8938;-57
2022/11/07 03:03:50;;;;;;;;;0.00;0.00;;;;;11.22;73.60;99235.78;5158998;27;8907;-57
2022/11/07 03:06:17;;;;;;;;;0.50;0.50;;;;;11.26;73.63;99237.19;5147811;27;8833;-56
2022/11/07 03:08:45;;;;;;;;;1.00;1.00;;;;;11.27;73.65;99220.19;5137594;27;8951;-56
2022/11/07 03:11:25;;;;;;;;;0.25;0.25;;;;;11.26;73.91;99226.53;5137838;27;8892;-57
2022/11/07 03:13:53;;;;;;;;;0.00;0.00;;;;;11.25;73.57;99222.19;5137384;27;8889;-57
2022/11/07 03:16:21;;;;;;;;;1.00;1.00;;;;;11.24;73.79;99223.13;5137378;27;8840;-57
2022/11/07 03:18:49;;;;;;;;;1.00;0.25;;;;;11.19;74.15;99229.88;5137981;27;8886;-57
2022/11/07 03:21:16;;;;;;;;;1.00;1.00;;;;;11.17;73.62;99227.38;5137486;27;8837;-56
2022/11/07 03:23:44;;;;;;;;;1.00;0.00;;;;;11.20;74.17;99243.06;5137573;27;8837;-57
2022/11/07 03:26:12;;;;;;;;;0.00;0.00;;;;;11.20;73.56;99245.75;5137397;27;8837;-56
2022/11/07 03:28:39;;;;;;;;;0.50;0.50;;;;;11.21;73.73;99251.94;5137086;27;8841;-57
2022/11/07 03:31:07;;;;;;;;;2.50;2.50;;;;;11.23;74.11;99248.09;5137674;27;8877;-57
2022/11/07 03:33:35;;;;;;;;;1.00;1.00;;;;;11.25;73.83;99248.81;5137349;27;8825;-55
2022/11/07 03:36:02;;;;;;;;;1.00;1.00;;;;;11.29;73.94;99242.22;5136941;27;8821;-57
2022/11/07 03:38:30;;;;;;;;;1.00;1.00;;;;;11.34;73.56;99255.97;5142205;27;9517;-57
2022/11/07 03:40:57;;;;;;;;;1.00;0.00;;;;;11.36;73.39;99243.31;5157924;27;8911;-57
2022/11/07 03:43:25;;;;;;;;;0.00;0.00;;;;;11.36;73.26;99243.31;5157984;27;8812;-57
2022/11/07 03:45:53;;;;;;;;;0.50;0.50;;;;;11.35;73.55;99251.44;5157886;27;8831;-57
2022/11/07 03:48:21;;;;;;;;;0.00;0.00;;;;;11.35;73.85;99248.78;5157632;27;8816;-55
2022/11/07 03:50:48;;;;;;;;;0.75;0.75;;;;;11.35;73.47;99249.63;5147620;27;8833;-57
2022/11/07 03:53:16;;;;;;;;;0.25;0.25;;;;;11.37;74.14;99257.50;5157652;27;8807;-56
2022/11/07 03:55:51;;;;;;;;;0.75;0.75;;;;;11.38;74.08;99243.19;5149110;27;8826;-56
2022/11/07 03:58:19;;;;;;;;;0.00;0.00;;;;;11.39;73.62;99237.69;5137200;27;8870;-56
2022/11/07 04:00:48;;;;;;;;;0.50;0.50;;;;;11.41;73.50;99243.75;5136914;27;8910;-57
2022/11/07 04:03:15;;;;;;;;;1.00;1.00;;;;;11.41;73.62;99256.22;5136775;27;8836;-56
2022/11/07 04:05:44;;;;;;;;;0.75;0.75;;;;;11.40;74.00;99254.53;5137058;27;8833;-57
2022/11/07 04:08:11;;;;;;;;;0.50;0.50;;;;;11.38;73.75;99244.00;5136675;27;8838;-57
2022/11/07 04:10:39;;;;;;;;;1.00;1.00;;;;;11.40;74.01;99258.06;5137655;27;8833;-55
2022/11/07 04:18:43;;;;;;;;;0.00;0.00;;;;;11.44;73.44;99270.09;5140797;27;8841;-54
2022/11/07 04:21:11;;;;;;;;;1.00;1.00;;;;;11.50;73.91;99274.84;5140872;27;8814;-56
2022/11/07 04:23:38;;;;;;;;;2.00;0.25;;;;;11.50;73.92;99269.53;5140568;27;8906;-56
2022/11/07 04:28:58;;;;;;;;;0.00;0.00;;;;;11.54;73.57;99270.91;5140606;27;8829;-55
2022/11/07 04:31:25;;;;;;;;;1.00;1.00;;;;;11.55;73.30;99282.41;5140288;27;8825;-55
2022/11/07 04:33:53;;;;;;;;;1.50;1.50;;;;;11.57;73.29;99267.09;5140268;27;8817;-56
2022/11/07 04:36:21;;;;;;;;;0.00;0.00;;;;;11.56;73.35;99274.28;5139907;27;8829;-56
2022/11/07 04:38:48;;;;;;;;;1.00;1.00;;;;;11.52;73.56;99264.88;5147687;27;8847;-54
2022/11/07 04:41:16;;;;;;;;;0.25;0.25;;;;;11.51;73.37;99263.19;5160556;27;9546;-56
2022/11/07 04:43:44;;;;;;;;;0.00;0.00;;;;;11.50;73.83;99269.53;5160747;27;8892;-55
2022/11/07 04:46:11;;;;;;;;;1.00;1.00;;;;;11.46;73.29;99268.13;5147241;27;8806;-55
2022/11/07 04:48:39;;;;;;;;;0.00;0.00;;;;;11.43;73.83;99275.56;5139977;27;8814;-55
2022/11/07 04:51:07;;;;;;;;;0.75;0.00;;;;;11.43;73.58;99275.56;5139926;27;8902;-56
2022/11/07 04:53:35;;;;;;;;;3.00;1.50;;;;;11.43;73.82;99267.56;5139859;27;8894;-57
2022/11/07 04:56:02;;;;;;;;;1.00;1.00;;;;;11.42;73.99;99257.88;5139889;27;8922;-56
2022/11/07 04:58:30;;;;;;;;;0.00;0.00;;;;;11.39;73.58;99269.66;5139531;27;9531;-57
2022/11/07 05:00:57;;;;;;;;;1.00;1.00;;;;;11.40;73.97;99262.53;5138266;27;8841;-57
2022/11/07 05:03:25;;;;;;;;;0.00;0.00;;;;;11.39;73.90;99258.19;5138666;27;8902;-56
2022/11/07 05:05:53;;;;;;;;;0.00;0.00;;;;;11.37;73.82;99270.84;5138838;27;8840;-57
2022/11/07 05:08:21;;;;;;;;;1.00;1.00;;;;;11.36;73.67;99256.66;5138742;27;8916;-57
2022/11/07 05:10:49;;;;;;;;;1.00;0.00;;;;;11.39;74.09;99260.84;5138955;27;8838;-57
2022/11/07 05:13:17;;;;;;;;;1.00;1.00;;;;;11.41;73.92;99266.88;5139252;27;8906;-57
2022/11/07 05:15:44;;;;;;;;;1.00;1.00;;;;;11.43;73.70;99270.22;5138739;27;8810;-56
2022/11/07 05:18:12;;;;;;;;;1.00;1.00;;;;;11.44;73.88;99272.75;5139047;27;8814;-56
2022/11/07 05:20:40;;;;;;;;;0.50;0.50;;;;;11.45;73.86;99265.63;5139190;27;8810;-57
2022/11/07 05:23:13;;;;;;;;;1.00;1.00;;;;;11.44;73.82;99267.44;5138910;27;8860;-57
2022/11/07 05:25:42;;;;;;;;;0.75;0.00;;;;;11.43;73.66;99268.41;5138766;27;8844;-57
2022/11/07 05:28:10;;;;;;;;;0.00;0.00;;;;;11.42;73.79;99258.75;5138847;27;9543;-57
2022/11/07 05:30:38;;;;;;;;;0.50;0.50;;;;;11.42;73.96;99263.22;5139274;27;9519;-57
2022/11/07 05:33:05;;;;;;;;;0.00;0.00;;;;;11.39;74.06;99251.00;5139092;27;8849;-57
2022/11/07 05:35:33;;;;;;;;;0.00;0.00;;;;;11.37;74.07;99255.66;5138665;27;8822;-57
2022/11/07 05:38:01;;;;;;;;;0.00;0.00;;;;;11.35;74.20;99265.63;5139916;27;8901;-57
2022/11/07 05:40:28;;;;;;;;;0.00;0.00;;;;;11.32;73.85;99262.41;5160246;27;8838;-58
2022/11/07 05:42:58;;;;;;;;;2.00;1.25;;;;;11.29;74.65;99258.19;5159857;27;8812;-57
2022/11/07 05:45:25;;;;;;;;;1.00;1.00;;;;;11.28;74.47;99271.66;5153548;27;8793;-57
2022/11/07 05:47:53;;;;;;;;;1.00;1.00;;;;;11.27;74.52;99260.19;5138823;27;8809;-57
2022/11/07 05:50:20;;;;;;;;;3.00;3.00;;;;;11.26;74.18;99263.84;5138922;27;8817;-57
2022/11/07 05:52:48;;;;;;;;;1.50;0.50;;;;;11.24;74.76;99271.09;5138525;27;8905;-58
2022/11/07 05:55:17;;;;;;;;;0.00;0.00;;;;;11.24;74.81;99267.63;5138963;27;8829;-57
2022/11/07 05:57:45;;;;;;;;;1.00;1.00;;;;;11.24;74.53;99279.09;5138318;27;8821;-57
2022/11/07 06:00:12;;;;;;;;;0.00;0.00;;;;;11.26;74.53;99277.16;5137236;27;8818;-56
2022/11/07 06:02:40;;;;;;;;;0.00;0.00;;;;;11.28;74.36;99283.19;5137258;27;8922;-57
2022/11/07 06:05:08;;;;;;;;;1.00;1.00;;;;;11.29;74.85;99282.19;5137050;27;8868;-57
2022/11/07 06:07:36;;;;;;;;;1.00;1.00;;;;;11.28;74.52;99277.84;5136915;27;8834;-57
2022/11/07 06:10:03;;;;;;;;;0.00;0.00;;;;;11.30;74.11;99285.72;5136846;27;8821;-56
2022/11/07 06:12:31;;;;;;;;;0.00;0.00;;;;;11.31;74.45;99293.53;5137436;27;8878;-57
2022/11/07 06:14:58;;;;;;;;;1.00;1.00;;;;;11.33;74.74;99296.06;5137143;27;8833;-57
2022/11/07 06:17:26;;;;;;;;;1.00;1.00;;;;;11.33;74.61;99299.59;5137341;27;8822;-57
2022/11/07 06:19:58;;;;;;;;;1.00;0.00;;;;;11.36;74.51;99299.28;5137750;27;9493;-57
2022/11/07 06:22:26;;;;;;;;;1.00;0.75;;;;;11.40;74.82;99287.38;5138038;27;8904;-57
2022/11/07 06:24:55;;;;;;;;;0.25;0.00;;;;;11.43;74.36;99299.56;5137616;27;9493;-57
2022/11/07 06:27:22;;;;;;;;;0.00;0.00;;;;;11.41;74.35;99299.72;5136288;27;8872;-57
2022/11/07 06:29:50;;;;;;;;;1.50;1.50;;;;;11.43;74.72;99294.22;5136516;27;8834;-57
2022/11/07 06:32:20;;;;;;;;;0.00;0.00;;;;;11.42;74.39;99298.72;5136485;27;8809;-58
2022/11/07 06:34:47;;;;;;;;;0.25;0.25;;;;;11.41;74.22;99297.06;5134942;27;8918;-57
2022/11/07 06:37:15;;;;;;;;;1.00;1.00;;;;;11.44;74.26;99307.41;5134488;27;8874;-58
2022/11/07 06:39:43;;;;;;;;;0.25;0.25;;;;;11.49;74.23;99310.50;5149731;27;8935;-58
2022/11/07 06:42:10;;;;;;;;;1.00;1.00;;;;;11.50;73.85;99312.19;5154706;27;8839;-57
2022/11/07 06:44:39;;;;;;;;;1.00;1.00;;;;;11.53;74.03;99301.22;5154297;27;8811;-58
2022/11/07 06:47:07;;;;;;;;;1.00;1.00;;;;;11.56;73.83;99300.94;5154927;27;8888;-58
2022/11/07 06:49:35;;;;;;;;;1.00;0.75;;;;;11.60;74.15;99306.88;5155127;27;8819;-57
2022/11/07 06:52:02;;;;;;;;;0.50;0.50;;;;;11.66;73.59;99309.78;5155327;27;8835;-58
2022/11/07 06:54:30;;;;;;;;;2.50;2.50;;;;;11.73;73.34;99308.22;5154763;27;8870;-58
2022/11/07 06:56:58;;;;;;;;;0.00;0.00;;;;;11.76;73.72;99310.59;5155490;27;8824;-57
2022/11/07 06:59:25;;;;;;;;;0.00;0.00;;;;;11.86;72.92;99315.91;5154302;27;8823;-58
2022/11/07 07:01:53;;;;;;;;;1.00;1.00;;;;;11.91;73.39;99311.00;5152947;27;8909;-58
2022/11/07 07:04:21;;;;;;;;;1.00;1.00;;;;;11.96;73.43;99309.56;5153137;27;8870;-58
2022/11/07 07:06:49;;;;;;;;;0.75;0.75;;;;;11.99;73.09;99306.59;5152568;27;8866;-58
2022/11/07 07:09:17;;;;;;;;;1.50;0.25;;;;;12.02;72.92;99323.16;5151492;27;8844;-58
2022/11/07 07:11:44;;;;;;;;;1.00;1.00;;;;;12.05;72.65;99316.69;5151666;27;8835;-57
2022/11/07 07:14:12;;;;;;;;;1.00;1.00;;;;;12.09;72.56;99326.09;5152924;27;8962;-58
2022/11/07 07:16:40;;;;;;;;;1.00;1.00;;;;;12.13;72.75;99320.31;5153658;27;8835;-58
2022/11/07 07:19:07;;;;;;;;;0.00;0.00;;;;;12.18;72.30;99312.72;5154000;27;8895;-58
2022/11/07 07:21:36;;;;;;;;;1.00;1.00;;;;;12.21;72.53;99327.56;5153577;27;8854;-57
2022/11/07 07:24:04;;;;;;;;;1.00;1.00;;;;;12.27;72.07;99321.63;5153915;27;9255;-58
2022/11/07 07:26:32;;;;;;;;;0.00;0.00;;;;;12.31;72.68;99321.19;5153699;27;8899;-58
2022/11/07 07:28:59;;;;;;;;;0.25;0.00;;;;;12.36;72.43;99328.75;5154673;27;8819;-58
2022/11/07 07:31:27;;;;;;;;;0.25;0.25;;;;;12.40;71.66;99338.16;5153737;27;8953;-57
2022/11/07 07:33:55;;;;;;;;;0.00;0.00;;;;;12.45;72.14;99342.06;5152835;27;8844;-58
2022/11/07 07:36:23;;;;;;;;;1.00;1.00;;;;;12.50;71.42;99333.59;5154559;27;8819;-58
2022/11/07 07:38:51;;;;;;;;;1.00;1.00;;;;;12.54;71.65;99335.00;5153857;27;8843;-57
2022/11/07 07:41:18;;;;;;;;;1.00;1.00;;;;;12.56;71.12;99325.84;5153976;27;8903;-57
2022/11/07 07:43:46;;;;;;;;;1.00;1.00;;;;;12.60;71.11;99345.09;5152828;27;8808;-58
2022/11/07 07:46:14;;;;;;;;;1.00;1.00;;;;;12.65;71.66;99342.78;5152144;27;8851;-58
2022/11/07 07:48:42;;;;;;;;;2.50;1.00;;;;;12.70;71.16;99336.00;5153901;27;8868;-58
2022/11/07 07:51:10;;;;;;;;;0.75;0.75;;;;;12.75;71.03;99344.41;5153569;27;8846;-57
2022/11/07 07:53:37;;;;;;;;;0.00;0.00;;;;;12.81;70.62;99334.97;5154759;27;8831;-58
2022/11/07 07:56:06;;;;;;;;;0.00;0.00;;;;;12.87;70.87;99334.34;5154967;27;8834;-58
2022/11/07 07:58:34;;;;;;;;;1.00;1.00;;;;;12.91;70.85;99339.25;5154443;27;8954;-57
2022/11/07 08:01:02;;;;;;;;;0.50;0.50;;;;;12.94;70.36;99341.66;5154722;27;8827;-58
2022/11/07 08:03:30;;;;;;;;;0.00;0.00;;;;;12.98;70.71;99339.53;5154153;27;8854;-58
2022/11/07 08:06:17;;;;;;;;;3.00;1.00;;;;;13.01;70.58;99344.56;5152234;27;8851;-57
2022/11/07 08:08:46;;;;;;;;;0.00;0.00;;;;;13.03;70.38;99339.91;5153026;27;8836;-58
2022/11/07 08:11:13;;;;;;;;;1.00;1.00;;;;;13.07;70.66;99344.78;5152329;27;8824;-58
2022/11/07 08:13:41;;;;;;;;;0.00;0.00;;;;;13.12;69.92;99347.00;5152040;27;8831;-58
2022/11/07 08:16:09;;;;;;;;;0.00;0.00;;;;;13.18;69.83;99331.19;5152797;27;8816;-57
2022/11/07 08:18:38;;;;;;;;;0.50;0.50;;;;;13.24;70.26;99333.28;5154297;27;8835;-58
2022/11/07 08:21:07;;;;;;;;;0.00;0.00;;;;;13.30;70.54;99348.69;5154771;27;8815;-58
2022/11/07 08:23:35;;;;;;;;;0.50;0.00;;;;;13.36;69.68;99344.56;5154707;27;8819;-58
2022/11/07 08:26:03;;;;;;;;;0.00;0.00;;;;;13.43;69.34;99338.44;5155539;27;8850;-58
2022/11/07 08:28:31;;;;;;;;;0.00;0.00;;;;;13.50;69.57;99352.03;5154044;27;8873;-58
2022/11/07 08:30:59;;;;;;;;;0.00;0.00;;;;;13.55;69.33;99349.72;5153065;27;8823;-58
2022/11/07 08:33:27;;;;;;;;;0.00;0.00;;;;;13.60;69.28;99352.78;5153558;27;9199;-57
2022/11/07 08:35:55;;;;;;;;;0.00;0.00;;;;;13.66;69.35;99362.88;5152433;27;8823;-58
2022/11/07 08:38:23;;;;;;;;;0.50;0.25;;;;;13.71;69.14;99355.19;5151096;27;8840;-58
2022/11/07 08:40:51;;;;;;;;;0.00;0.00;;;;;13.75;69.22;99362.75;5151846;27;8946;-58
2022/11/07 08:43:19;;;;;;;;;1.00;1.00;;;;;13.81;69.38;99374.69;5152410;27;8877;-58
2022/11/07 08:45:49;;;;;;;;;0.50;0.50;;;;;13.85;68.80;99362.66;5152077;27;9143;-57
2022/11/07 08:48:17;;;;;;;;;0.00;0.00;;;;;13.88;69.30;99363.19;5153377;27;8853;-58
2022/11/07 08:50:45;;;;;;;;;1.00;0.00;;;;;13.89;68.84;99361.38;5153516;27;8849;-58
2022/11/07 08:53:13;;;;;;;;;0.00;0.00;;;;;13.88;69.15;99379.25;5153837;27;8835;-58
2022/11/07 08:55:40;;;;;;;;;0.50;0.50;;;;;13.88;68.78;99367.72;5152285;27;8843;-58
2022/11/07 08:58:09;;;;;;;;;0.50;0.50;;;;;13.88;69.50;99378.44;5155394;27;8911;-57
2022/11/07 09:00:36;;;;;;;;;0.50;0.50;;;;;13.88;69.47;99362.38;5157036;27;8819;-56
2022/11/07 09:03:04;;;;;;;;;0.00;0.00;;;;;13.90;68.89;99377.25;5157266;27;8946;-57
2022/11/07 09:05:52;;;;;;;;;0.00;0.00;;;;;13.93;68.87;99374.28;5156261;27;9510;-58
2022/11/07 09:08:20;;;;;;;;;1.00;1.00;;;;;13.96;69.29;99370.44;5155653;27;8855;-57
2022/11/07 09:10:48;;;;;;;;;0.00;0.00;;;;;13.97;69.00;99358.75;5154432;27;9519;-59
2022/11/07 09:13:16;;;;;;;;;0.00;0.00;;;;;13.99;69.65;99362.94;5155416;27;8847;-58
2022/11/07 09:15:45;;;;;;;;;1.00;1.00;;;;;14.08;69.40;99369.19;5155428;27;8861;-59
2022/11/07 09:18:18;;;;;;;;;1.00;0.00;;;;;14.18;68.64;99384.16;5154882;27;8831;-58
2022/11/07 09:20:46;;;;;;;;;0.00;0.00;;;;;14.26;69.03;99384.22;5154247;27;8839;-57
2022/11/07 09:23:14;;;;;;;;;0.00;0.00;;;;;14.33;68.69;99374.53;5154290;27;8832;-58
2022/11/07 09:25:42;;;;;;;;;0.50;0.50;;;;;14.36;68.49;99370.72;5154577;27;8831;-58
2022/11/07 09:28:10;;;;;;;;;1.00;1.00;;;;;14.39;68.93;99386.47;5154143;27;8843;-58
2022/11/07 09:30:38;;;;;;;;;0.50;0.00;;;;;14.39;68.49;99383.78;5154621;27;9548;-58
2022/11/07 09:33:06;;;;;;;;;0.00;0.00;;;;;14.37;69.06;99383.09;5154615;27;8848;-58
2022/11/07 09:35:34;;;;;;;;;1.00;1.00;;;;;14.38;68.98;99387.47;5155641;27;8842;-58
2022/11/07 09:38:02;;;;;;;;;2.50;2.50;;;;;14.38;68.87;99391.00;5156294;27;8862;-58
2022/11/07 09:40:30;;;;;;;;;0.00;0.00;;;;;14.41;69.12;99392.53;5156600;27;8951;-58
2022/11/07 09:42:58;;;;;;;;;1.00;1.00;;;;;14.40;69.04;99407.75;5156519;27;8847;-58
2022/11/07 09:45:26;;;;;;;;;1.00;1.00;;;;;14.39;69.26;99397.16;5156827;27;8819;-58
2022/11/07 09:47:54;;;;;;;;;0.50;0.50;;;;;14.35;69.08;99393.97;5156181;27;8850;-58
2022/11/07 09:50:22;;;;;;;;;0.00;0.00;;;;;14.34;69.08;99404.88;5156097;27;8835;-58
2022/11/07 09:52:50;;;;;;;;;0.00;0.00;;;;;14.32;69.03;99405.00;5157153;27;8880;-58
2022/11/07 09:55:17;;;;;;;;;0.00;0.00;;;;;14.34;69.44;99412.91;5156336;27;8835;-57
2022/11/07 09:57:46;;;;;;;;;0.00;0.00;;;;;14.37;68.76;99409.91;5157690;27;8811;-58
2022/11/07 10:00:14;;;;;;;;;0.00;0.00;;;;;14.40;69.24;99417.59;5157873;27;8823;-56
2022/11/07 10:02:42;;;;;;;;;0.00;0.00;;;;;14.40;69.43;99418.44;5157876;27;8843;-58
2022/11/07 10:05:10;;;;;;;;;0.75;0.75;;;;;14.39;68.96;99415.94;5157341;27;8861;-58
2022/11/07 10:07:38;;;;;;;;;0.00;0.00;;;;;14.38;69.41;99424.97;5157327;27;8858;-58
2022/11/07 10:10:08;;;;;;;;;2.00;2.00;;;;;14.38;69.02;99423.13;5156504;27;8815;-59
2022/11/07 10:12:36;;;;;;;;;1.00;1.00;;;;;14.40;68.82;99433.69;5155501;27;8827;-58
2022/11/07 10:15:10;;;;;;;;;0.00;0.00;;;;;14.39;69.00;99438.22;5154718;27;8945;-58
2022/11/07 10:17:38;;;;;;;;;0.00;0.00;;;;;14.37;69.52;99434.00;5154172;27;8819;-58
2022/11/07 10:20:06;;;;;;;;;0.00;0.00;;;;;14.36;69.58;99435.00;5154674;27;8839;-58
2022/11/07 10:22:34;;;;;;;;;1.00;1.00;;;;;14.33;69.55;99430.81;5154827;27;8831;-58
2022/11/07 10:25:02;;;;;;;;;0.50;0.50;;;;;14.32;69.98;99433.63;5152824;27;8844;-58
2022/11/07 10:27:30;;;;;;;;;2.00;2.00;;;;;14.35;69.91;99431.47;5151789;27;8823;-58
2022/11/07 10:29:59;;;;;;;;;1.00;1.00;;;;;14.40;69.81;99444.38;5152637;27;8911;-58
2022/11/07 10:32:27;;;;;;;;;0.00;0.00;;;;;14.44;69.66;99435.06;5151268;27;8852;-58
2022/11/07 10:34:56;;;;;;;;;0.00;0.00;;;;;14.44;69.40;99440.41;5151781;27;8820;-57
2022/11/07 10:37:24;;;;;;;;;0.00;0.00;;;;;14.41;69.37;99446.91;5151893;27;8962;-58
2022/11/07 10:39:52;;;;;;;;;0.00;0.00;;;;;14.33;69.93;99448.72;5152092;27;8843;-57
2022/11/07 10:42:20;;;;;;;;;0.50;0.00;;;;;14.14;70.82;99459.59;5151811;27;8914;-58
2022/11/07 10:44:48;;;;;;;;;0.00;0.00;;;;;13.95;71.39;99455.25;5150958;27;9525;-58
2022/11/07 10:47:16;;;;;;;;;0.00;0.00;;;;;13.91;72.03;99453.91;5152243;27;8846;-57
2022/11/07 10:49:44;;;;;;;;;1.00;1.00;;;;;13.91;71.73;99463.75;5151626;27;8823;-58
2022/11/07 10:52:12;;;;;;;;;0.00;0.00;;;;;13.94;71.68;99456.25;5151306;27;8863;-58
2022/11/07 10:54:40;;;;;;;;;0.00;0.00;;;;;13.92;71.49;99454.72;5151984;27;9497;-57
2022/11/07 10:57:08;;;;;;;;;0.00;0.00;;;;;13.85;71.91;99451.00;5152599;27;8827;-56
2022/11/07 10:59:40;;;;;;;;;0.75;0.75;;;;;13.74;72.36;99456.59;5153237;27;8870;-58
2022/11/07 11:02:08;;;;;;;;;3.00;3.00;;;;;13.64;72.61;99456.66;5152430;27;8865;-57
2022/11/07 11:04:36;;;;;;;;;2.00;2.00;;;;;13.53;73.29;99454.22;5152668;27;8839;-58
2022/11/07 11:07:03;;;;;;;;;0.00;0.00;;;;;13.41;74.00;99454.59;5151247;27;8812;-58
2022/11/07 11:09:32;;;;;;;;;1.00;1.00;;;;;13.33;73.95;99459.84;5151814;27;9494;-58
2022/11/07 11:11:59;;;;;;;;;3.00;3.00;;;;;13.27;74.57;99452.44;5151845;27;8823;-58
2022/11/07 11:14:27;;;;;;;;;1.00;1.00;;;;;13.21;74.35;99443.19;5151747;27;8831;-58
2022/11/07 11:16:55;;;;;;;;;1.00;1.00;;;;;13.20;75.25;99451.38;5152196;27;8865;-58
2022/11/07 11:19:23;;;;;;;;;4.00;3.00;;;;;13.19;74.83;99444.31;5152114;27;8839;-58
2022/11/07 11:21:52;;;;;;;;;0.00;0.00;;;;;13.20;75.02;99443.34;5151775;27;8851;-58
2022/11/07 11:24:19;;;;;;;;;0.00;0.00;;;;;13.28;74.58;99438.91;5151798;27;8841;-58
2022/11/07 11:26:47;;;;;;;;;0.67;0.00;;;;;13.41;74.36;99434.03;5151495;27;9137;-56
2022/11/07 11:29:15;;;;;;;;;0.00;0.00;;;;;13.61;74.26;99430.22;5152477;27;8923;-57
2022/11/07 11:31:43;;;;;;;;;0.50;0.50;;;;;13.72;74.11;99427.31;5151462;27;8915;-57
2022/11/07 11:34:12;;;;;;;;;0.00;0.00;;;;;13.81;74.23;99425.56;5152532;27;8831;-58
2022/11/07 11:36:39;;;;;;;;;0.00;0.00;;;;;13.84;74.70;99425.22;5152750;27;8835;-58
2022/11/07 11:39:08;;;;;;;;;1.00;1.00;;;;;13.85;74.22;99421.56;5152555;27;8840;-58
2022/11/07 11:41:36;;;;;;;;;2.50;0.50;;;;;13.93;74.00;99416.25;5152519;27;8827;-57
2022/11/07 11:44:04;;;;;;;;;1.00;0.00;;;;;14.07;73.75;99415.69;5153322;27;9620;-58
2022/11/07 11:46:32;;;;;;;;;0.25;0.25;;;;;14.23;73.71;99410.47;5152723;27;8929;-57
2022/11/07 11:49:02;;;;;;;;;0.75;0.00;;;;;14.36;73.48;99410.91;5151405;27;8831;-57
2022/11/07 11:51:30;;;;;;;;;0.00;0.00;;;;;14.42;72.92;99415.63;5151794;27;8839;-58
2022/11/07 11:53:58;;;;;;;;;1.00;0.00;;;;;14.52;73.15;99413.66;5151161;27;9490;-57